createdAt,value
2023-05-11T00:03:06.666Z,11.50
2023-05-11T00:08:00.146Z,11.40
2023-05-11T00:12:53.392Z,11.40
2023-05-11T00:17:48.076Z,11.50
2023-05-11T00:22:44.152Z,11.50
2023-05-11T00:27:38.097Z,11.60
2023-05-11T00:32:31.424Z,11.50
2023-05-11T00:37:26.365Z,11.40
2023-05-11T00:42:19.665Z,11.40
2023-05-11T00:47:13.848Z,11.30
2023-05-11T00:52:07.616Z,11.20
2023-05-11T00:57:02.854Z,11.20
2023-05-11T01:01:56.626Z,11.10
2023-05-11T01:07:01.510Z,11.10
2023-05-11T01:12:08.999Z,11.10
2023-05-11T01:17:13.143Z,11.10
2023-05-11T01:22:27.123Z,11.20
2023-05-11T01:28:00.217Z,11.10
2023-05-11T01:32:59.644Z,11.20
2023-05-11T01:37:58.643Z,11.20
2023-05-11T01:43:01.319Z,11.20
2023-05-11T01:47:58.581Z,11.20
2023-05-11T01:52:54.388Z,11.20
2023-05-11T01:57:52.976Z,11.20
2023-05-11T02:02:49.081Z,11.20
2023-05-11T02:07:49.051Z,11.10
2023-05-11T02:12:45.346Z,11.20
2023-05-11T02:17:41.976Z,11.20
2023-05-11T02:22:37.505Z,11.20
2023-05-11T02:27:33.069Z,11.10
2023-05-11T02:32:30.074Z,10.90
2023-05-11T02:37:28.194Z,11.00
2023-05-11T02:42:25.000Z,11.10
2023-05-11T02:47:22.343Z,11.20
2023-05-11T02:52:17.186Z,11.10
2023-05-11T02:57:10.718Z,11.00
2023-05-11T03:02:04.284Z,10.90
2023-05-11T03:06:59.190Z,10.80
2023-05-11T03:11:52.942Z,11.00
2023-05-11T03:16:49.024Z,11.00
2023-05-11T03:21:43.043Z,11.00
2023-05-11T03:26:38.742Z,11.00
2023-05-11T03:31:32.281Z,11.00
2023-05-11T03:41:29.072Z,10.80
2023-05-11T03:46:22.524Z,10.90
2023-05-11T03:56:23.982Z,10.90
2023-05-11T04:01:17.349Z,10.80
2023-05-11T04:11:18.032Z,10.90
2023-05-11T04:16:12.721Z,10.90
2023-05-11T04:21:07.022Z,11.00
2023-05-11T04:26:00.728Z,10.90
2023-05-11T04:30:55.179Z,10.80
2023-05-11T04:35:52.198Z,10.80
2023-05-11T04:40:45.520Z,10.90
2023-05-11T04:45:38.923Z,10.90
2023-05-11T04:50:32.224Z,10.90
2023-05-11T04:55:27.172Z,10.90
2023-05-11T05:00:22.430Z,11.00
2023-05-11T05:05:15.864Z,11.10
2023-05-11T05:10:09.941Z,11.10
2023-05-11T05:15:05.669Z,11.10
2023-05-11T05:19:59.120Z,11.20
2023-05-11T05:24:52.555Z,11.20
2023-05-11T05:29:45.866Z,11.20
2023-05-11T05:34:40.692Z,11.30
2023-05-11T05:39:33.982Z,11.30
2023-05-11T05:44:27.318Z,11.40
2023-05-11T05:49:20.646Z,11.40
2023-05-11T05:54:15.344Z,11.40
2023-05-11T05:59:10.856Z,11.40
2023-05-11T06:04:04.858Z,11.40
2023-05-11T06:08:58.261Z,11.30
2023-05-11T06:13:52.875Z,11.40
2023-05-11T06:18:47.433Z,11.40
2023-05-11T06:23:40.778Z,11.40
2023-05-11T06:28:34.122Z,11.50
2023-05-11T06:33:30.197Z,11.40
2023-05-11T06:38:23.740Z,11.50
2023-05-11T06:43:58.649Z,11.50
2023-05-11T06:48:57.836Z,11.60
2023-05-11T06:53:51.460Z,11.50
2023-05-11T06:58:44.881Z,11.60
2023-05-11T07:03:38.257Z,11.80
2023-05-11T07:08:33.834Z,11.90
2023-05-11T07:13:27.230Z,11.90
2023-05-11T07:18:20.576Z,11.90
2023-05-11T07:23:13.929Z,11.90
2023-05-11T07:28:08.596Z,11.90
2023-05-11T07:33:02.643Z,11.80
2023-05-11T07:37:56.049Z,11.90
2023-05-11T07:42:49.389Z,11.90
2023-05-11T07:47:45.286Z,11.90
2023-05-11T07:52:38.746Z,11.80
2023-05-11T07:57:32.070Z,11.80
2023-05-11T08:02:25.580Z,12.10
2023-05-11T08:07:20.316Z,12.10
2023-05-11T08:12:13.662Z,12.20
2023-05-11T08:17:07.348Z,12.00
2023-05-11T08:22:02.181Z,12.10
2023-05-11T08:26:56.833Z,12.10
2023-05-11T08:31:51.379Z,12.00
2023-05-11T08:36:45.640Z,12.10
2023-05-11T08:41:38.975Z,12.20
2023-05-11T08:46:41.217Z,12.30
2023-05-11T08:51:34.828Z,12.60
2023-05-11T08:56:31.265Z,12.70
2023-05-11T09:01:25.231Z,12.60
2023-05-11T09:06:21.784Z,12.60
2023-05-11T09:11:15.259Z,12.60
2023-05-11T09:16:19.513Z,12.60
2023-05-11T09:21:26.121Z,12.80
2023-05-11T09:26:24.427Z,13.00
2023-05-11T09:31:43.634Z,12.90
2023-05-11T09:36:38.487Z,12.90
2023-05-11T09:41:35.415Z,13.10
2023-05-11T09:46:29.354Z,13.50
2023-05-11T09:51:31.905Z,14.30
2023-05-11T09:56:47.232Z,14.70
2023-05-11T10:01:41.517Z,14.50
2023-05-11T10:06:47.029Z,14.30
2023-05-11T10:11:46.527Z,13.80
2023-05-11T10:16:42.448Z,13.50
2023-05-11T10:21:36.123Z,13.40
2023-05-11T10:26:32.345Z,13.20
2023-05-11T10:31:28.086Z,13.00
2023-05-11T10:36:24.274Z,12.80
2023-05-11T10:41:37.079Z,12.60
2023-05-11T10:46:56.292Z,12.70
2023-05-11T10:52:29.418Z,13.00
2023-05-11T10:57:57.808Z,13.20
2023-05-11T11:02:52.625Z,13.10
2023-05-11T11:07:59.756Z,12.90
2023-05-11T11:13:05.546Z,12.80
2023-05-11T11:18:25.724Z,12.80
2023-05-11T11:23:50.320Z,12.80
2023-05-11T11:29:12.850Z,12.90
2023-05-11T11:34:39.315Z,12.90
2023-05-11T11:39:55.820Z,12.70
2023-05-11T11:44:53.899Z,12.40
2023-05-11T11:49:50.426Z,12.40
2023-05-11T11:54:46.499Z,12.30
2023-05-11T11:59:48.346Z,12.40
2023-05-11T12:04:53.596Z,13.00
2023-05-11T12:09:48.273Z,13.00
2023-05-11T12:14:48.902Z,13.20
2023-05-11T12:19:45.388Z,13.30
2023-05-11T12:24:40.420Z,13.10
2023-05-11T12:29:33.938Z,13.00
2023-05-11T12:34:27.436Z,12.90
2023-05-11T12:39:22.465Z,12.90
2023-05-11T12:44:18.946Z,12.70
2023-05-11T12:49:14.033Z,12.50
2023-05-11T12:54:07.316Z,12.50
2023-05-11T12:59:00.624Z,12.40
2023-05-11T13:03:55.344Z,12.10
2023-05-11T13:08:49.269Z,11.90
2023-05-11T13:13:42.527Z,11.90
2023-05-11T13:18:35.868Z,11.90
2023-05-11T13:23:31.275Z,12.00
2023-05-11T13:28:25.689Z,12.00
2023-05-11T13:33:19.168Z,12.10
2023-05-11T13:38:13.624Z,12.10
2023-05-11T13:43:08.498Z,11.90
2023-05-11T13:48:01.841Z,11.90
2023-05-11T13:52:55.325Z,11.80
2023-05-11T13:57:48.666Z,12.00
2023-05-11T14:02:44.987Z,12.10
2023-05-11T14:07:46.273Z,12.00
2023-05-11T14:12:42.674Z,12.10
2023-05-11T14:17:36.334Z,12.00
2023-05-11T14:22:31.109Z,12.30
2023-05-11T14:27:25.070Z,12.40
2023-05-11T14:32:19.014Z,12.60
2023-05-11T14:37:13.019Z,12.70
2023-05-11T14:42:08.783Z,12.50
2023-05-11T14:47:02.233Z,12.60
2023-05-11T14:51:55.592Z,12.50
2023-05-11T14:56:53.961Z,12.70
2023-05-11T15:01:50.254Z,12.80
2023-05-11T15:06:43.805Z,13.00
2023-05-11T15:11:37.319Z,12.90
2023-05-11T15:16:31.130Z,12.90
2023-05-11T15:21:26.004Z,12.50
2023-05-11T15:26:19.491Z,12.60
2023-05-11T15:31:12.797Z,12.70
2023-05-11T15:36:13.636Z,12.70
2023-05-11T15:41:08.976Z,12.60
2023-05-11T15:46:03.775Z,12.50
2023-05-11T15:50:57.410Z,12.70
2023-05-11T15:55:53.559Z,12.70
2023-05-11T16:00:48.992Z,12.60
2023-05-11T16:05:42.447Z,12.50
2023-05-11T16:10:36.892Z,12.50
2023-05-11T16:15:31.260Z,12.40
2023-05-11T16:20:26.024Z,12.40
2023-05-11T16:25:19.525Z,12.40
2023-05-11T16:30:23.439Z,12.40
2023-05-11T16:35:18.564Z,12.40
2023-05-11T16:40:13.871Z,12.50
2023-05-11T16:45:08.352Z,12.40
2023-05-11T16:50:01.609Z,12.40
2023-05-11T16:54:56.265Z,12.30
2023-05-11T16:59:53.133Z,12.30
2023-05-11T17:04:46.440Z,12.30
2023-05-11T17:09:39.715Z,12.30
2023-05-11T17:14:33.029Z,12.20
2023-05-11T17:19:27.823Z,12.10
2023-05-11T17:24:21.521Z,12.10
2023-05-11T17:29:14.863Z,12.00
2023-05-11T17:34:09.137Z,12.00
2023-05-11T17:39:04.063Z,12.00
2023-05-11T17:43:57.800Z,11.90
2023-05-11T17:48:52.602Z,11.90
2023-05-11T17:53:46.070Z,11.90
2023-05-11T17:58:40.741Z,11.90
2023-05-11T18:03:34.373Z,11.80
2023-05-11T18:08:27.946Z,11.80
2023-05-11T18:13:22.279Z,11.90
2023-05-11T18:18:18.046Z,11.90
2023-05-11T18:23:17.033Z,11.70
2023-05-11T18:28:10.391Z,11.70
2023-05-11T18:33:03.737Z,11.60
2023-05-11T18:38:02.168Z,11.50
2023-05-11T18:42:56.145Z,11.30
2023-05-11T18:47:49.473Z,11.30
2023-05-11T18:52:42.970Z,11.40
2023-05-11T18:57:39.457Z,11.40
2023-05-11T19:02:35.874Z,11.40
2023-05-11T19:07:29.561Z,11.40
2023-05-11T19:12:22.947Z,11.30
2023-05-11T19:17:17.676Z,11.20
2023-05-11T19:22:11.021Z,11.10
2023-05-11T19:27:07.764Z,11.00
2023-05-11T19:32:01.450Z,11.10
2023-05-11T19:36:56.156Z,11.20
2023-05-11T19:41:49.499Z,11.20
2023-05-11T19:46:46.458Z,11.30
2023-05-11T19:51:40.099Z,11.20
2023-05-11T19:56:34.904Z,11.20
2023-05-11T20:01:28.303Z,11.30
2023-05-11T20:06:21.630Z,11.30
2023-05-11T20:11:14.900Z,11.30
2023-05-11T20:16:09.573Z,11.30
2023-05-11T20:21:02.974Z,11.30
2023-05-11T20:25:56.387Z,11.30
2023-05-11T20:30:50.136Z,11.20
2023-05-11T20:35:44.821Z,11.10
2023-05-11T20:40:38.152Z,11.10
2023-05-11T20:45:31.683Z,11.10
2023-05-11T20:50:26.827Z,11.00
2023-05-11T20:55:22.068Z,10.90
2023-05-11T21:00:16.477Z,11.00
2023-05-11T21:05:10.137Z,11.00
2023-05-11T21:10:03.446Z,11.00
2023-05-11T21:14:58.184Z,11.10
2023-05-11T21:19:51.546Z,11.00
2023-05-11T21:24:44.835Z,10.90
2023-05-11T21:29:38.113Z,11.00
2023-05-11T21:34:32.779Z,11.10
2023-05-11T21:39:26.034Z,11.10
2023-05-11T21:44:19.280Z,11.10
2023-05-11T21:49:13.494Z,11.10
2023-05-11T21:54:09.044Z,11.20
2023-05-11T21:59:02.361Z,11.10
2023-05-11T22:03:55.847Z,11.20
2023-05-11T22:08:49.185Z,11.20
2023-05-11T22:13:44.623Z,11.30
2023-05-11T22:18:38.011Z,11.30
2023-05-11T22:23:31.936Z,11.30
2023-05-11T22:28:25.209Z,11.30
2023-05-11T22:33:19.874Z,11.30
2023-05-11T22:38:13.170Z,11.20
2023-05-11T22:43:06.489Z,11.20
2023-05-11T22:47:59.878Z,11.10
2023-05-11T22:52:54.568Z,11.10
2023-05-11T22:57:47.904Z,11.10
2023-05-11T23:02:41.333Z,11.20
2023-05-11T23:07:34.740Z,11.00
2023-05-11T23:12:29.395Z,11.00
2023-05-11T23:17:22.769Z,10.90
2023-05-11T23:22:16.159Z,10.90
2023-05-11T23:27:09.492Z,10.90
2023-05-11T23:32:04.676Z,10.90
2023-05-11T23:36:57.996Z,11.00
2023-05-11T23:41:51.295Z,10.90
2023-05-11T23:46:44.746Z,10.90
2023-05-11T23:51:39.481Z,10.80
2023-05-11T23:56:32.776Z,10.80
